This is the latest recevied weather packets stored in our database for station/object JF7BTK-10. If no packets are shown the sender has not sent any weather packets the latest 10 day(s).
| Time | Temp. | Humidity | Pressure | Rain* | Wind** | Luminosity | Snow |
|---|---|---|---|---|---|---|---|
| 1778255179 | 11.67° C | 95% | 996.6 hPa | 0.76 mm | - | - | - |
| 1778254299 | 12.22° C | 95% | 996.7 hPa | 0.51 mm | - | - | - |
| 1778253078 | 12.22° C | 95% | 996.9 hPa | 0.25 mm | - | - | - |
| 1778252780 | 12.22° C | 94% | 996.8 hPa | 0.25 mm | - | - | - |
| 1778251600 | 12.78° C | 91% | 996.6 hPa | 0 mm | - | - | - |
| 1778250699 | 12.78° C | 91% | 996.8 hPa | 0 mm | - | - | - |
| 1778249798 | 12.78° C | 90% | 996.8 hPa | 0 mm | - | - | - |
| 1778248898 | 13.33° C | 90% | 996.4 hPa | 0 mm | - | - | - |
| 1778247997 | 13.33° C | 91% | 996.7 hPa | 0 mm | - | - | - |
| 1778246478 | 13.33° C | 91% | 996.9 hPa | 0 mm | - | - | - |
| 1778246198 | 13.33° C | 91% | 997 hPa | 0 mm | - | - | - |
| 1778245298 | 13.89° C | 91% | 997.4 hPa | 0 mm | - | - | - |
| 1778244398 | 13.89° C | 93% | 997 hPa | 0 mm | - | - | - |
| 1778240778 | 15° C | 90% | 996.4 hPa | 0 mm | - | - | - |
| 1778239899 | 15° C | 90% | 996.9 hPa | 0 mm | - | - | - |
| 1778238999 | 15.56° C | 90% | 995.9 hPa | 0 mm | - | - | - |
| 1778238098 | 15.56° C | 88% | 996.3 hPa | 0 mm | - | - | - |
| 1778237198 | 15.56° C | 85% | 996.5 hPa | 0 mm | - | - | - |
| 1778234498 | 17.22° C | 74% | 996.3 hPa | 0 mm | - | - | - |
| 1778230899 | 18.33° C | 66% | 996.2 hPa | 0 mm | - | - | - |
| 1778229999 | 17.78° C | 71% | 996.3 hPa | 0 mm | - | - | - |
| 1778227299 | 17.78° C | 75% | 996.4 hPa | 0 mm | - | - | - |
| 1778226398 | 18.33° C | 74% | 996.3 hPa | 0 mm | - | - | - |
| 1778225500 | 18.33° C | 73% | 996.5 hPa | 0 mm | - | - | - |
| 1778224598 | 18.89° C | 71% | 996.7 hPa | 0 mm | - | - | - |
* Rain latest hour (hover to see other rain measurements)
** Current wind speed in m/s (hover to see current wind gust speed)